createdAt,value
2017-10-23T00:01:40.055Z,75.14
2017-10-23T00:04:07.723Z,74.73
2017-10-23T00:06:35.344Z,74.82
2017-10-23T00:09:03.156Z,74.97
2017-10-23T00:11:31.656Z,75.30
2017-10-23T00:13:59.269Z,74.44
2017-10-23T00:16:26.929Z,73.54
2017-10-23T00:18:54.605Z,72.66
2017-10-23T00:21:22.212Z,72.41
2017-10-23T00:23:49.936Z,73.39
2017-10-23T00:26:17.612Z,73.58
2017-10-23T00:28:45.216Z,73.73
2017-10-23T00:31:12.868Z,73.06
2017-10-23T00:33:40.479Z,72.42
2017-10-23T00:36:08.095Z,72.90
2017-10-23T00:38:35.747Z,73.97
2017-10-23T00:41:03.360Z,74.12
2017-10-23T00:43:30.960Z,73.41
2017-10-23T00:45:58.628Z,73.58
2017-10-23T00:48:26.243Z,73.82
2017-10-23T00:50:53.859Z,73.82
2017-10-23T00:53:21.521Z,73.77
2017-10-23T00:55:49.200Z,73.92
2017-10-23T00:58:16.936Z,73.96
2017-10-23T01:00:44.739Z,74.90
2017-10-23T01:03:12.343Z,74.54
2017-10-23T01:05:39.961Z,74.29
2017-10-23T01:08:07.623Z,74.30
2017-10-23T01:10:35.219Z,75.42
2017-10-23T01:13:02.888Z,74.51
2017-10-23T01:15:30.623Z,74.56
2017-10-23T01:17:58.240Z,74.45
2017-10-23T01:20:25.936Z,74.55
2017-10-23T01:22:53.592Z,74.47
2017-10-23T01:25:21.260Z,73.82
2017-10-23T01:27:48.912Z,74.00
2017-10-23T01:30:16.588Z,74.45
2017-10-23T01:32:44.196Z,73.88
2017-10-23T01:35:11.816Z,73.25
2017-10-23T01:37:39.540Z,72.80
2017-10-23T01:40:07.153Z,72.63
2017-10-23T01:42:34.764Z,71.79
2017-10-23T01:45:02.502Z,71.45
2017-10-23T01:47:30.115Z,71.33
2017-10-23T01:49:57.723Z,71.51
2017-10-23T01:52:25.433Z,71.71
2017-10-23T01:54:53.043Z,71.56
2017-10-23T01:57:20.703Z,71.21
2017-10-23T01:59:48.428Z,70.52
2017-10-23T02:02:16.173Z,70.20
2017-10-23T02:04:43.794Z,70.17
2017-10-23T02:07:11.439Z,69.87
2017-10-23T02:09:39.060Z,69.35
2017-10-23T02:12:06.725Z,69.01
2017-10-23T02:14:34.440Z,68.89
2017-10-23T02:17:02.059Z,68.91
2017-10-23T02:19:29.675Z,69.18
2017-10-23T02:21:57.339Z,68.39
2017-10-23T02:24:25.008Z,67.83
2017-10-23T02:26:52.615Z,67.54
2017-10-23T02:29:20.260Z,67.08
2017-10-23T02:31:47.931Z,67.08
2017-10-23T02:34:15.548Z,67.15
2017-10-23T02:36:43.192Z,67.28
2017-10-23T02:39:10.860Z,67.71
2017-10-23T02:41:38.528Z,68.06
2017-10-23T02:44:06.180Z,68.21
2017-10-23T02:46:33.784Z,68.34
2017-10-23T02:49:01.399Z,68.28
2017-10-23T02:51:29.040Z,68.59
2017-10-23T02:53:56.639Z,68.72
2017-10-23T02:56:24.236Z,69.06
2017-10-23T02:58:51.981Z,68.83
2017-10-23T03:01:19.647Z,68.25
2017-10-23T03:03:47.263Z,68.29
2017-10-23T03:06:14.907Z,68.03
2017-10-23T03:08:42.520Z,68.30
2017-10-23T03:11:10.172Z,68.08
2017-10-23T03:13:37.852Z,68.17
2017-10-23T03:16:05.518Z,68.28
2017-10-23T03:18:33.189Z,68.08
2017-10-23T03:21:00.863Z,68.39
2017-10-23T03:23:28.487Z,68.29
2017-10-23T03:25:56.110Z,68.46
2017-10-23T03:28:23.868Z,68.32
2017-10-23T03:30:51.497Z,68.64
2017-10-23T03:33:19.110Z,69.08
2017-10-23T03:35:46.844Z,68.96
2017-10-23T03:38:14.460Z,69.01
2017-10-23T03:40:42.076Z,69.01
2017-10-23T03:43:09.743Z,69.12
2017-10-23T03:45:37.403Z,68.91
2017-10-23T03:48:05.007Z,69.10
2017-10-23T03:50:32.688Z,69.09
2017-10-23T03:53:00.363Z,68.54
2017-10-23T03:55:27.977Z,69.01
2017-10-23T03:57:55.655Z,68.86
2017-10-23T04:00:23.447Z,68.70
2017-10-23T04:02:51.055Z,68.60
2017-10-23T04:05:18.836Z,68.59
2017-10-23T04:07:46.447Z,68.62
2017-10-23T04:10:14.056Z,68.86
2017-10-23T04:12:41.727Z,68.40
2017-10-23T04:15:09.500Z,68.51
2017-10-23T04:17:37.122Z,68.31
2017-10-23T04:20:04.884Z,67.63
2017-10-23T04:22:32.562Z,67.86
2017-10-23T04:25:00.239Z,67.62
2017-10-23T04:27:27.911Z,67.18
2017-10-23T04:29:55.584Z,67.53
2017-10-23T04:32:23.212Z,67.38
2017-10-23T04:34:50.879Z,67.93
2017-10-23T04:37:18.592Z,68.07
2017-10-23T04:39:46.276Z,68.15
2017-10-23T04:42:13.999Z,68.54
2017-10-23T04:44:41.629Z,67.84
2017-10-23T04:47:09.263Z,67.59
2017-10-23T04:49:36.922Z,68.10
2017-10-23T04:52:04.551Z,67.90
2017-10-23T04:54:32.230Z,67.45
2017-10-23T04:56:59.979Z,67.40
2017-10-23T04:59:27.615Z,67.15
2017-10-23T05:01:55.279Z,66.57
2017-10-23T05:04:22.956Z,66.29
2017-10-23T05:06:50.637Z,66.33
2017-10-23T05:09:18.242Z,66.29
2017-10-23T05:11:45.965Z,65.82
2017-10-23T05:14:13.651Z,66.08
2017-10-23T05:16:41.261Z,65.87
2017-10-23T05:19:08.928Z,65.21
2017-10-23T05:21:36.616Z,64.82
2017-10-23T05:24:04.302Z,64.89
2017-10-23T05:26:31.967Z,65.57
2017-10-23T05:28:59.579Z,65.78
2017-10-23T05:31:27.217Z,65.73
2017-10-23T05:33:54.903Z,66.19
2017-10-23T05:36:22.527Z,66.95
2017-10-23T05:38:50.174Z,66.32
2017-10-23T05:41:17.855Z,65.05
2017-10-23T05:43:45.556Z,64.18
2017-10-23T05:46:13.210Z,63.80
2017-10-23T05:48:40.872Z,63.84
2017-10-23T05:51:08.489Z,63.69
2017-10-23T05:53:36.108Z,63.79
2017-10-23T05:56:03.801Z,63.16
2017-10-23T05:58:31.498Z,62.52
2017-10-23T06:00:59.224Z,62.04
2017-10-23T06:03:26.896Z,61.33
2017-10-23T06:05:54.519Z,60.97
2017-10-23T06:08:22.200Z,60.88
2017-10-23T06:10:49.867Z,60.38
2017-10-23T06:13:17.596Z,59.86
2017-10-23T06:15:45.275Z,59.90
2017-10-23T06:18:12.941Z,60.39
2017-10-23T06:20:40.796Z,59.71
2017-10-23T06:23:08.452Z,58.70
2017-10-23T06:25:36.131Z,58.72
2017-10-23T06:28:03.755Z,58.09
2017-10-23T06:30:31.424Z,57.85
2017-10-23T06:32:59.187Z,57.56
2017-10-23T06:35:26.825Z,56.88
2017-10-23T06:37:54.451Z,56.22
2017-10-23T06:40:22.219Z,56.59
2017-10-23T06:42:49.904Z,54.91
2017-10-23T06:45:17.521Z,55.43
2017-10-23T06:47:45.191Z,55.58
2017-10-23T06:50:12.850Z,54.68
2017-10-23T06:52:40.463Z,53.08
2017-10-23T06:55:08.139Z,54.24
2017-10-23T06:57:35.860Z,54.02
2017-10-23T07:00:03.495Z,54.11
2017-10-23T07:02:31.267Z,54.16
2017-10-23T07:04:58.943Z,53.88
2017-10-23T07:07:26.611Z,53.86
2017-10-23T07:09:54.351Z,54.05
2017-10-23T07:12:22.015Z,53.37
2017-10-23T07:14:49.702Z,52.80
2017-10-23T07:17:17.391Z,52.73
2017-10-23T07:19:45.065Z,52.61
2017-10-23T07:22:12.667Z,50.11
2017-10-23T07:24:40.471Z,50.64
2017-10-23T07:27:08.140Z,50.01
2017-10-23T07:29:35.744Z,50.58
2017-10-23T07:32:03.396Z,50.11
2017-10-23T07:34:31.083Z,49.47
2017-10-23T07:36:58.751Z,50.01
2017-10-23T07:39:26.404Z,48.80
2017-10-23T07:41:54.031Z,48.38
2017-10-23T07:44:21.691Z,48.89
2017-10-23T07:46:49.366Z,49.39
2017-10-23T07:49:16.975Z,49.15
2017-10-23T07:51:44.574Z,49.61
2017-10-23T07:54:12.283Z,48.50
2017-10-23T07:56:39.948Z,49.62
2017-10-23T07:59:07.616Z,47.98
2017-10-23T08:01:35.296Z,48.69
2017-10-23T08:04:02.921Z,49.20
2017-10-23T08:06:30.531Z,49.99
2017-10-23T08:08:58.189Z,49.29
2017-10-23T08:11:25.863Z,49.40
2017-10-23T08:13:53.520Z,49.48
2017-10-23T08:16:21.194Z,48.59
2017-10-23T08:18:48.865Z,49.31
2017-10-23T08:21:16.533Z,49.31
2017-10-23T08:23:44.335Z,48.45
2017-10-23T08:26:11.936Z,48.02
2017-10-23T08:28:39.535Z,48.29
2017-10-23T08:31:07.240Z,47.98
2017-10-23T08:33:34.904Z,48.27
2017-10-23T08:36:02.517Z,47.55
2017-10-23T08:38:30.181Z,46.95
2017-10-23T08:40:57.835Z,47.92
2017-10-23T08:43:25.495Z,48.47
2017-10-23T08:45:53.208Z,47.45
2017-10-23T08:48:20.811Z,46.28
2017-10-23T08:50:48.414Z,46.51
2017-10-23T08:53:16.148Z,46.96
2017-10-23T08:55:43.760Z,46.75
2017-10-23T08:58:11.376Z,46.14
2017-10-23T09:00:39.128Z,46.59
2017-10-23T09:03:06.732Z,45.91
2017-10-23T09:05:34.356Z,45.79
2017-10-23T09:08:02.083Z,45.70
2017-10-23T09:10:29.768Z,45.56
2017-10-23T09:12:57.384Z,45.29
2017-10-23T09:15:25.197Z,45.95
2017-10-23T09:17:52.809Z,45.09
2017-10-23T09:20:20.477Z,45.05
2017-10-23T09:22:48.128Z,45.55
2017-10-23T09:25:15.742Z,44.84
2017-10-23T09:27:43.406Z,45.42
2017-10-23T09:30:11.127Z,45.35
2017-10-23T09:32:38.795Z,45.21
2017-10-23T09:35:06.463Z,45.93
2017-10-23T09:37:34.127Z,44.63
2017-10-23T09:40:01.797Z,45.59
2017-10-23T09:42:29.399Z,44.34
2017-10-23T09:44:57.067Z,45.01
2017-10-23T09:47:24.670Z,45.74
2017-10-23T09:49:52.275Z,45.82
2017-10-23T09:52:20.003Z,45.74
2017-10-23T09:54:47.676Z,47.25
2017-10-23T09:57:15.268Z,46.12
2017-10-23T09:59:42.924Z,46.75
2017-10-23T10:02:10.542Z,47.31
2017-10-23T10:04:38.143Z,47.28
2017-10-23T10:07:05.793Z,47.91
2017-10-23T10:09:33.401Z,48.65
2017-10-23T10:12:01.068Z,48.60
2017-10-23T10:14:28.719Z,49.42
2017-10-23T10:16:56.384Z,49.42
2017-10-23T10:19:23.996Z,49.60
2017-10-23T10:21:51.722Z,49.90
2017-10-23T10:24:19.409Z,50.99
2017-10-23T10:26:47.015Z,50.52
2017-10-23T10:29:14.722Z,50.91
2017-10-23T10:31:42.385Z,51.15
2017-10-23T10:34:09.988Z,51.05
2017-10-23T10:36:37.652Z,51.19
2017-10-23T10:39:05.272Z,51.21
2017-10-23T10:41:32.882Z,50.87
2017-10-23T10:44:00.527Z,50.44
2017-10-23T10:46:28.208Z,49.60
2017-10-23T10:48:55.820Z,49.87
2017-10-23T10:51:23.476Z,49.11
2017-10-23T10:53:51.082Z,49.83
2017-10-23T10:56:18.695Z,50.27
2017-10-23T10:58:46.355Z,49.32
2017-10-23T11:01:14.023Z,48.46
2017-10-23T11:03:41.684Z,47.58
2017-10-23T11:06:09.397Z,47.11
2017-10-23T11:08:37.069Z,47.70
2017-10-23T11:11:04.680Z,47.02
2017-10-23T11:13:32.343Z,46.49
2017-10-23T11:15:59.968Z,45.39
2017-10-23T11:18:28.524Z,45.93
2017-10-23T11:20:56.181Z,47.24
2017-10-23T11:23:23.792Z,47.16
2017-10-23T11:25:51.416Z,47.31
2017-10-23T11:28:19.083Z,47.62
2017-10-23T11:30:46.762Z,47.24
2017-10-23T11:33:14.375Z,47.59
2017-10-23T11:35:42.032Z,48.70
2017-10-23T11:38:09.700Z,48.76
2017-10-23T11:40:37.380Z,49.47
2017-10-23T11:43:05.043Z,50.15
2017-10-23T11:45:32.708Z,50.37
2017-10-23T11:48:00.323Z,50.85
2017-10-23T11:50:28.049Z,51.94
2017-10-23T11:52:55.666Z,51.10
2017-10-23T11:55:23.275Z,50.97
2017-10-23T11:57:50.941Z,50.92
2017-10-23T12:00:18.556Z,51.50
2017-10-23T12:02:46.173Z,51.56
2017-10-23T12:05:13.826Z,51.53
2017-10-23T12:07:41.432Z,51.52
2017-10-23T12:10:09.112Z,51.72
2017-10-23T12:12:36.788Z,52.35
2017-10-23T12:15:04.433Z,53.23
2017-10-23T12:17:32.060Z,53.24
2017-10-23T12:19:59.864Z,53.28
2017-10-23T12:22:27.540Z,53.25
2017-10-23T12:24:55.151Z,53.40
2017-10-23T12:27:22.898Z,53.61
2017-10-23T12:29:50.515Z,54.01
2017-10-23T12:32:18.131Z,54.09
2017-10-23T12:34:45.784Z,54.24
2017-10-23T12:37:13.396Z,54.69
2017-10-23T12:39:41.079Z,54.21
2017-10-23T12:42:08.751Z,53.86
2017-10-23T12:44:36.367Z,54.62
2017-10-23T12:47:03.980Z,55.52
2017-10-23T12:49:31.692Z,54.23
2017-10-23T12:54:26.250Z,54.30
2017-10-23T12:56:53.924Z,55.48
2017-10-23T12:59:21.539Z,54.96
2017-10-23T13:01:49.157Z,55.16
2017-10-23T13:04:16.821Z,55.34
2017-10-23T13:06:44.479Z,55.16
2017-10-23T13:09:12.084Z,55.59
2017-10-23T13:11:39.757Z,56.13
2017-10-23T13:14:07.367Z,56.23
2017-10-23T13:16:35.035Z,56.63
2017-10-23T13:19:02.707Z,57.15
2017-10-23T13:21:30.324Z,57.22
2017-10-23T13:23:57.998Z,57.46
2017-10-23T13:26:25.759Z,57.37
2017-10-23T13:28:53.365Z,57.62
2017-10-23T13:31:21.052Z,57.83
2017-10-23T13:33:48.777Z,58.67
2017-10-23T13:36:16.394Z,59.79
2017-10-23T13:38:44.073Z,61.12
2017-10-23T13:41:11.802Z,61.64
2017-10-23T13:43:39.419Z,63.63
2017-10-23T13:46:07.031Z,65.65
2017-10-23T13:48:34.695Z,67.61
2017-10-23T13:51:02.313Z,67.74
2017-10-23T13:53:29.956Z,70.09
2017-10-23T13:55:57.684Z,71.96
2017-10-23T13:58:25.355Z,72.47
2017-10-23T14:00:53.053Z,73.61
2017-10-23T14:03:20.729Z,73.78
2017-10-23T14:05:48.398Z,75.24
2017-10-23T14:08:16.007Z,74.91
2017-10-23T14:10:43.683Z,76.53
2017-10-23T14:13:11.333Z,78.26
2017-10-23T14:15:38.947Z,78.56
2017-10-23T14:18:06.642Z,79.37
2017-10-23T14:20:34.340Z,80.62
2017-10-23T14:23:02.094Z,80.72
2017-10-23T14:25:29.859Z,81.63
2017-10-23T14:27:57.516Z,81.87
2017-10-23T14:30:25.304Z,82.31
2017-10-23T14:32:53.196Z,82.47
2017-10-23T14:35:20.875Z,83.58
2017-10-23T14:37:48.575Z,84.19
2017-10-23T14:40:16.303Z,84.67
2017-10-23T14:42:44.131Z,83.93
2017-10-23T14:45:11.851Z,84.43
2017-10-23T14:47:39.670Z,85.02
2017-10-23T14:50:07.365Z,85.28
2017-10-23T14:52:35.071Z,84.77
2017-10-23T14:55:02.828Z,84.53
2017-10-23T14:57:30.452Z,84.68
2017-10-23T14:59:58.112Z,84.37
2017-10-23T15:02:25.868Z,84.64
2017-10-23T15:04:53.486Z,85.07
2017-10-23T15:07:21.112Z,84.60
2017-10-23T15:09:48.774Z,85.40
2017-10-23T15:12:16.408Z,85.44
2017-10-23T15:14:44.043Z,84.94
2017-10-23T15:17:11.704Z,85.33
2017-10-23T15:19:39.378Z,85.39
2017-10-23T15:22:07.020Z,85.49
2017-10-23T15:24:34.682Z,85.47
2017-10-23T15:27:02.295Z,86.15
2017-10-23T15:29:29.900Z,85.47
2017-10-23T15:31:57.580Z,85.74
2017-10-23T15:34:25.450Z,86.18
2017-10-23T15:36:53.106Z,86.99
2017-10-23T15:39:20.824Z,86.52
2017-10-23T15:41:48.495Z,86.88
2017-10-23T15:44:16.233Z,86.13
2017-10-23T15:46:43.955Z,86.29
2017-10-23T15:49:11.595Z,85.93
2017-10-23T15:51:39.255Z,86.30
2017-10-23T15:54:07.155Z,86.67
2017-10-23T15:56:34.819Z,86.51
2017-10-23T15:59:02.428Z,86.34
2017-10-23T16:01:30.083Z,86.97
2017-10-23T16:03:58.647Z,86.89
2017-10-23T16:06:26.261Z,87.11
2017-10-23T16:08:53.932Z,87.09
2017-10-23T16:11:21.550Z,86.37
2017-10-23T16:13:49.217Z,86.59
2017-10-23T16:16:16.880Z,86.72
2017-10-23T16:18:44.554Z,87.05
2017-10-23T16:21:12.161Z,86.70
2017-10-23T16:23:39.931Z,86.82
2017-10-23T16:26:07.541Z,86.99
2017-10-23T16:28:35.224Z,86.93
2017-10-23T16:31:02.964Z,86.76
2017-10-23T16:33:30.620Z,86.95
2017-10-23T16:35:58.244Z,87.15
2017-10-23T16:38:25.907Z,87.23
2017-10-23T16:40:53.519Z,87.09
2017-10-23T16:43:21.136Z,87.56
2017-10-23T16:45:48.803Z,87.30
2017-10-23T16:48:16.422Z,87.32
2017-10-23T16:50:44.028Z,87.12
2017-10-23T16:53:11.804Z,86.84
2017-10-23T16:55:39.478Z,86.85
2017-10-23T16:58:07.099Z,86.98
2017-10-23T17:00:34.816Z,86.48
2017-10-23T17:03:02.483Z,86.62
2017-10-23T17:05:30.097Z,87.54
2017-10-23T17:07:57.760Z,87.93
2017-10-23T17:10:25.373Z,87.75
2017-10-23T17:12:53.069Z,87.43
2017-10-23T17:15:20.750Z,87.04
2017-10-23T17:17:48.360Z,87.14
2017-10-23T17:20:16.077Z,87.64
2017-10-23T17:22:43.768Z,87.46
2017-10-23T17:25:11.441Z,87.36
2017-10-23T17:27:39.052Z,87.76
2017-10-23T17:30:06.783Z,88.01
2017-10-23T17:32:34.399Z,88.41
2017-10-23T17:35:02.092Z,88.70
2017-10-23T17:37:29.818Z,89.08
2017-10-23T17:39:57.488Z,89.29
2017-10-23T17:42:25.140Z,89.59
2017-10-23T17:44:52.809Z,89.74
2017-10-23T17:47:20.422Z,89.75
2017-10-23T17:49:48.033Z,89.64
2017-10-23T17:52:15.704Z,89.64
2017-10-23T17:54:43.311Z,89.75
2017-10-23T17:57:10.919Z,89.72
2017-10-23T17:59:38.573Z,89.76
2017-10-23T18:02:06.260Z,89.77
2017-10-23T18:04:33.883Z,89.85
2017-10-23T18:07:01.554Z,89.61
2017-10-23T18:09:29.159Z,89.61
2017-10-23T18:11:56.767Z,89.56
2017-10-23T18:14:24.456Z,90.00
2017-10-23T18:16:52.125Z,90.19
2017-10-23T18:19:19.793Z,90.10
2017-10-23T18:21:47.519Z,90.60
2017-10-23T18:24:15.195Z,90.17
2017-10-23T18:26:42.802Z,89.81
2017-10-23T18:29:10.463Z,89.57
2017-10-23T18:31:38.067Z,89.92
2017-10-23T18:34:05.672Z,89.86
2017-10-23T18:36:33.335Z,89.56
2017-10-23T18:39:00.951Z,89.81
2017-10-23T18:41:28.631Z,89.83
2017-10-23T18:43:56.360Z,89.53
2017-10-23T18:46:24.032Z,89.17
2017-10-23T18:48:51.691Z,89.41
2017-10-23T18:51:19.360Z,89.13
2017-10-23T18:53:47.065Z,89.04
2017-10-23T18:56:14.738Z,88.83
2017-10-23T18:58:42.396Z,89.37
2017-10-23T19:01:10.104Z,89.11
2017-10-23T19:03:37.712Z,89.06
2017-10-23T19:06:05.383Z,89.05
2017-10-23T19:08:33.011Z,88.79
2017-10-23T19:11:00.628Z,88.68
2017-10-23T19:13:28.360Z,89.01
2017-10-23T19:15:55.974Z,88.18
2017-10-23T19:18:23.604Z,88.37
2017-10-23T19:20:51.259Z,88.18
2017-10-23T19:23:18.926Z,88.43
2017-10-23T19:25:46.536Z,88.81
2017-10-23T19:28:14.279Z,88.81
2017-10-23T19:30:41.981Z,88.27
2017-10-23T19:33:09.604Z,88.57
2017-10-23T19:35:37.285Z,88.49
2017-10-23T19:38:04.951Z,88.39
2017-10-23T19:40:32.572Z,88.38
2017-10-23T19:43:00.303Z,88.01
2017-10-23T19:45:27.939Z,88.11
2017-10-23T19:47:55.553Z,88.60
2017-10-23T19:50:23.216Z,88.64
2017-10-23T19:52:50.824Z,88.69
2017-10-23T19:55:18.443Z,88.52
2017-10-23T19:57:46.121Z,88.21
2017-10-23T20:00:13.749Z,88.17
2017-10-23T20:02:41.374Z,88.81
2017-10-23T20:05:09.078Z,89.42
2017-10-23T20:07:36.695Z,89.50
2017-10-23T20:10:04.388Z,88.85
2017-10-23T20:12:32.070Z,88.99
2017-10-23T20:14:59.715Z,89.18
2017-10-23T20:17:27.340Z,89.08
2017-10-23T20:19:55.184Z,89.25
2017-10-23T20:22:22.807Z,89.07
2017-10-23T20:24:50.427Z,89.14
2017-10-23T20:27:18.100Z,89.35
2017-10-23T20:29:45.712Z,89.20
2017-10-23T20:32:13.500Z,89.06
2017-10-23T20:34:41.220Z,89.04
2017-10-23T20:37:08.844Z,89.09
2017-10-23T20:39:36.501Z,88.85
2017-10-23T20:42:04.211Z,88.91
2017-10-23T20:44:31.827Z,89.01
2017-10-23T20:46:59.495Z,88.67
2017-10-23T20:49:27.168Z,88.35
2017-10-23T20:51:54.844Z,88.22
2017-10-23T20:54:22.455Z,88.55
2017-10-23T20:56:50.178Z,88.76
2017-10-23T20:59:17.791Z,88.81
2017-10-23T21:01:45.463Z,88.83
2017-10-23T21:04:13.112Z,88.93
2017-10-23T21:06:40.726Z,89.13
2017-10-23T21:09:08.343Z,89.33
2017-10-23T21:11:36.024Z,89.38
2017-10-23T21:14:03.639Z,89.40
2017-10-23T21:16:31.240Z,89.30
2017-10-23T21:18:58.895Z,89.29
2017-10-23T21:21:26.501Z,89.50
2017-10-23T21:23:54.118Z,89.40
2017-10-23T21:26:21.936Z,89.31
2017-10-23T21:28:49.539Z,89.34
2017-10-23T21:31:17.140Z,89.33
2017-10-23T21:33:44.799Z,89.38
2017-10-23T21:36:12.463Z,89.25
2017-10-23T21:38:40.080Z,89.17
2017-10-23T21:41:07.791Z,89.22
2017-10-23T21:43:35.461Z,89.01
2017-10-23T21:46:03.280Z,88.68
2017-10-23T21:48:30.944Z,88.73
2017-10-23T21:50:58.558Z,88.67
2017-10-23T21:53:26.221Z,88.86
2017-10-23T21:55:53.936Z,88.85
2017-10-23T21:58:21.535Z,88.85
2017-10-23T22:00:49.153Z,88.97
2017-10-23T22:03:16.804Z,88.71
2017-10-23T22:05:44.408Z,88.87
2017-10-23T22:08:12.015Z,88.84
2017-10-23T22:10:39.735Z,88.93
2017-10-23T22:13:07.339Z,89.07
2017-10-23T22:15:34.944Z,89.50
2017-10-23T22:18:02.653Z,89.36
2017-10-23T22:20:30.272Z,89.79
2017-10-23T22:22:57.875Z,89.58
2017-10-23T22:25:25.527Z,89.85
2017-10-23T22:27:53.151Z,89.66
2017-10-23T22:30:20.768Z,89.63
2017-10-23T22:32:48.436Z,89.83
2017-10-23T22:35:16.057Z,89.91
2017-10-23T22:37:43.672Z,89.97
2017-10-23T22:40:11.352Z,89.98
2017-10-23T22:42:39.022Z,90.18
2017-10-23T22:45:06.687Z,90.29
2017-10-23T22:47:34.344Z,90.21
2017-10-23T22:50:02.012Z,90.32
2017-10-23T22:52:29.621Z,90.17
2017-10-23T22:54:57.323Z,90.14
2017-10-23T22:57:24.987Z,89.94
2017-10-23T22:59:52.583Z,90.02
2017-10-23T23:02:20.296Z,89.76
2017-10-23T23:04:47.960Z,89.75
2017-10-23T23:07:15.574Z,89.96
2017-10-23T23:09:43.360Z,90.31
2017-10-23T23:12:11.028Z,89.87
2017-10-23T23:14:38.703Z,89.85
2017-10-23T23:17:06.434Z,90.00
2017-10-23T23:19:34.099Z,89.97
2017-10-23T23:22:01.715Z,89.95
2017-10-23T23:24:29.376Z,89.94
2017-10-23T23:26:56.986Z,90.33
2017-10-23T23:29:24.655Z,90.67
2017-10-23T23:31:52.321Z,90.56
2017-10-23T23:34:19.942Z,90.27
2017-10-23T23:36:47.547Z,90.42
2017-10-23T23:39:15.210Z,90.70
2017-10-23T23:41:42.873Z,90.69
2017-10-23T23:44:10.480Z,90.41
2017-10-23T23:46:38.154Z,90.50
2017-10-23T23:49:05.820Z,90.67
2017-10-23T23:51:33.426Z,90.51
2017-10-23T23:54:01.080Z,90.73
2017-10-23T23:56:28.696Z,90.76
2017-10-23T23:58:56.299Z,90.46
